sensor_id;sensor_type;location;lat;lon;timestamp;P1;durP1;ratioP1;P2;durP2;ratioP2
76069;SDS011;64768;51.738;5.852;2023-02-15T09:17:29;42.60;;;26.08;;
76069;SDS011;64768;51.738;5.852;2023-02-15T09:23:10;39.83;;;20.45;;
76069;SDS011;64768;51.738;5.852;2023-02-15T09:31:07;41.15;;;22.77;;
76069;SDS011;64768;51.738;5.852;2023-02-15T09:34:14;39.92;;;22.05;;
76069;SDS011;64768;51.738;5.852;2023-02-15T09:36:51;39.30;;;21.00;;
76069;SDS011;64768;51.738;5.852;2023-02-15T09:39:22;30.80;;;18.33;;
76069;SDS011;64768;51.738;5.852;2023-02-15T09:42:24;44.28;;;22.90;;
76069;SDS011;64768;51.738;5.852;2023-02-15T09:45:30;40.97;;;21.42;;
76069;SDS011;64768;51.738;5.852;2023-02-15T09:51:24;39.15;;;22.45;;
76069;SDS011;64768;51.738;5.852;2023-02-15T09:54:33;36.70;;;20.23;;
76069;SDS011;64768;51.738;5.852;2023-02-15T09:57:19;39.08;;;20.75;;
76069;SDS011;64768;51.738;5.852;2023-02-15T10:00:00;39.22;;;21.48;;
76069;SDS011;64768;51.738;5.852;2023-02-15T10:02:48;36.38;;;19.25;;
76069;SDS011;64768;51.738;5.852;2023-02-15T10:05:33;41.83;;;23.38;;
76069;SDS011;64768;51.738;5.852;2023-02-15T10:08:21;37.10;;;23.95;;
76069;SDS011;64768;51.738;5.852;2023-02-15T10:11:07;36.15;;;19.63;;
76069;SDS011;64768;51.738;5.852;2023-02-15T10:13:57;38.35;;;19.55;;
76069;SDS011;64768;51.738;5.852;2023-02-15T10:16:49;37.40;;;22.17;;
76069;SDS011;64768;51.738;5.852;2023-02-15T10:19:27;31.40;;;15.60;;
76069;SDS011;64768;51.738;5.852;2023-02-15T10:22:08;29.77;;;19.08;;
76069;SDS011;64768;51.738;5.852;2023-02-15T10:24:59;34.03;;;19.48;;
76069;SDS011;64768;51.738;5.852;2023-02-15T10:27:38;29.15;;;16.33;;
76069;SDS011;64768;51.738;5.852;2023-02-15T10:30:17;33.67;;;18.27;;
76069;SDS011;64768;51.738;5.852;2023-02-15T10:33:00;36.47;;;20.85;;
76069;SDS011;64768;51.738;5.852;2023-02-15T10:35:36;35.90;;;20.48;;
76069;SDS011;64768;51.738;5.852;2023-02-15T10:38:19;37.15;;;22.63;;
76069;SDS011;64768;51.738;5.852;2023-02-15T10:41:00;33.33;;;18.55;;
76069;SDS011;64768;51.738;5.852;2023-02-15T10:43:43;35.65;;;21.67;;
76069;SDS011;64768;51.738;5.852;2023-02-15T10:46:28;32.15;;;17.45;;
76069;SDS011;64768;51.738;5.852;2023-02-15T10:49:16;30.52;;;19.35;;
76069;SDS011;64768;51.738;5.852;2023-02-15T10:52:03;36.05;;;24.20;;
76069;SDS011;64768;51.738;5.852;2023-02-15T10:54:45;38.72;;;21.05;;
76069;SDS011;64768;51.738;5.852;2023-02-15T10:57:26;36.90;;;24.13;;
76069;SDS011;64768;51.738;5.852;2023-02-15T11:00:08;25.27;;;14.05;;
76069;SDS011;64768;51.738;5.852;2023-02-15T11:05:56;30.40;;;15.77;;
76069;SDS011;64768;51.738;5.852;2023-02-15T11:08:33;35.58;;;20.42;;
76069;SDS011;64768;51.738;5.852;2023-02-15T11:11:06;29.10;;;16.65;;
76069;SDS011;64768;51.738;5.852;2023-02-15T11:13:44;30.50;;;16.77;;
76069;SDS011;64768;51.738;5.852;2023-02-15T11:16:17;29.75;;;16.65;;
76069;SDS011;64768;51.738;5.852;2023-02-15T11:18:51;35.00;;;16.08;;
76069;SDS011;64768;51.738;5.852;2023-02-15T11:21:26;26.33;;;13.55;;
76069;SDS011;64768;51.738;5.852;2023-02-15T11:24:07;31.35;;;15.73;;
76069;SDS011;64768;51.738;5.852;2023-02-15T11:26:41;35.63;;;20.85;;
76069;SDS011;64768;51.738;5.852;2023-02-15T11:31:51;36.78;;;22.17;;
76069;SDS011;64768;51.738;5.852;2023-02-15T11:34:23;33.22;;;17.75;;
76069;SDS011;64768;51.738;5.852;2023-02-15T11:36:55;35.72;;;20.02;;
76069;SDS011;64768;51.738;5.852;2023-02-15T11:39:33;34.80;;;18.88;;
76069;SDS011;64768;51.738;5.852;2023-02-15T11:42:06;35.80;;;20.60;;
76069;SDS011;64768;51.738;5.852;2023-02-15T11:44:42;37.45;;;20.25;;
76069;SDS011;64768;51.738;5.852;2023-02-15T11:47:27;33.13;;;18.25;;
76069;SDS011;64768;51.738;5.852;2023-02-15T11:49:57;36.45;;;18.17;;
76069;SDS011;64768;51.738;5.852;2023-02-15T11:52:27;35.40;;;19.23;;
76069;SDS011;64768;51.738;5.852;2023-02-15T11:54:56;34.65;;;17.00;;
76069;SDS011;64768;51.738;5.852;2023-02-15T11:57:30;27.45;;;15.15;;
76069;SDS011;64768;51.738;5.852;2023-02-15T12:00:13;32.08;;;16.80;;
76069;SDS011;64768;51.738;5.852;2023-02-15T12:02:54;32.15;;;18.00;;
76069;SDS011;64768;51.738;5.852;2023-02-15T12:05:34;39.67;;;18.45;;
76069;SDS011;64768;51.738;5.852;2023-02-15T12:10:46;23.60;;;13.40;;
76069;SDS011;64768;51.738;5.852;2023-02-15T12:13:24;32.30;;;17.42;;
76069;SDS011;64768;51.738;5.852;2023-02-15T12:16:00;35.75;;;18.20;;
76069;SDS011;64768;51.738;5.852;2023-02-15T12:18:55;35.42;;;17.98;;
76069;SDS011;64768;51.738;5.852;2023-02-15T12:21:38;33.03;;;17.55;;
76069;SDS011;64768;51.738;5.852;2023-02-15T12:24:29;37.95;;;17.70;;
76069;SDS011;64768;51.738;5.852;2023-02-15T12:27:16;27.83;;;16.33;;
76069;SDS011;64768;51.738;5.852;2023-02-15T12:29:53;29.90;;;15.05;;
76069;SDS011;64768;51.738;5.852;2023-02-15T12:32:30;19.83;;;11.10;;
76069;SDS011;64768;51.738;5.852;2023-02-15T12:35:12;31.27;;;15.45;;
76069;SDS011;64768;51.738;5.852;2023-02-15T12:38:01;29.25;;;16.65;;
76069;SDS011;64768;51.738;5.852;2023-02-15T12:43:26;31.10;;;16.63;;
76069;SDS011;64768;51.738;5.852;2023-02-15T12:51:56;35.50;;;17.50;;
76069;SDS011;64768;51.738;5.852;2023-02-15T12:54:43;35.67;;;18.13;;
76069;SDS011;64768;51.738;5.852;2023-02-15T12:57:23;27.23;;;12.88;;
76069;SDS011;64768;51.738;5.852;2023-02-15T12:59:59;39.00;;;18.77;;
76069;SDS011;64768;51.738;5.852;2023-02-15T13:02:35;30.63;;;16.88;;
76069;SDS011;64768;51.738;5.852;2023-02-15T13:05:19;33.72;;;17.70;;
76069;SDS011;64768;51.738;5.852;2023-02-15T13:08:03;34.65;;;17.65;;
76069;SDS011;64768;51.738;5.852;2023-02-15T13:10:51;34.10;;;16.65;;
76069;SDS011;64768;51.738;5.852;2023-02-15T13:13:29;27.17;;;12.95;;
76069;SDS011;64768;51.738;5.852;2023-02-15T13:18:46;32.70;;;17.95;;
76069;SDS011;64768;51.738;5.852;2023-02-15T13:21:22;30.38;;;14.45;;
76069;SDS011;64768;51.738;5.852;2023-02-15T13:24:01;28.98;;;14.25;;
76069;SDS011;64768;51.738;5.852;2023-02-15T13:26:37;33.70;;;17.95;;
76069;SDS011;64768;51.738;5.852;2023-02-15T13:31:45;29.35;;;13.43;;
76069;SDS011;64768;51.738;5.852;2023-02-15T13:34:20;22.98;;;13.32;;
76069;SDS011;64768;51.738;5.852;2023-02-15T13:36:55;32.15;;;16.40;;
76069;SDS011;64768;51.738;5.852;2023-02-15T13:39:37;25.10;;;13.05;;
76069;SDS011;64768;51.738;5.852;2023-02-15T13:42:15;27.15;;;14.63;;
76069;SDS011;64768;51.738;5.852;2023-02-15T13:45:03;37.13;;;19.50;;
76069;SDS011;64768;51.738;5.852;2023-02-15T13:47:58;36.20;;;19.00;;
76069;SDS011;64768;51.738;5.852;2023-02-15T13:50:37;27.20;;;15.73;;
76069;SDS011;64768;51.738;5.852;2023-02-15T13:53:31;34.38;;;17.05;;
76069;SDS011;64768;51.738;5.852;2023-02-15T13:56:15;31.23;;;18.25;;
76069;SDS011;64768;51.738;5.852;2023-02-15T13:59:10;29.58;;;15.88;;
76069;SDS011;64768;51.738;5.852;2023-02-15T14:01:55;25.70;;;14.05;;
76069;SDS011;64768;51.738;5.852;2023-02-15T14:04:46;29.40;;;15.00;;
76069;SDS011;64768;51.738;5.852;2023-02-15T14:07:41;34.55;;;17.50;;
76069;SDS011;64768;51.738;5.852;2023-02-15T14:10:34;30.88;;;16.27;;
76069;SDS011;64768;51.738;5.852;2023-02-15T14:26:10;34.30;;;17.50;;
76069;SDS011;64768;51.738;5.852;2023-02-15T14:29:44;31.98;;;17.00;;
76069;SDS011;64768;51.738;5.852;2023-02-15T14:34:50;29.65;;;16.73;;
76069;SDS011;64768;51.738;5.852;2023-02-15T14:37:29;36.50;;;17.67;;
76069;SDS011;64768;51.738;5.852;2023-02-15T14:40:22;37.80;;;17.92;;
76069;SDS011;64768;51.738;5.852;2023-02-15T14:43:19;32.78;;;18.63;;
76069;SDS011;64768;51.738;5.852;2023-02-15T14:46:00;30.73;;;16.50;;
76069;SDS011;64768;51.738;5.852;2023-02-15T14:48:47;39.08;;;19.15;;
76069;SDS011;64768;51.738;5.852;2023-02-15T14:57:21;34.00;;;18.73;;
76069;SDS011;64768;51.738;5.852;2023-02-15T14:59:59;40.05;;;18.95;;
76069;SDS011;64768;51.738;5.852;2023-02-15T15:02:45;37.25;;;19.63;;
76069;SDS011;64768;51.738;5.852;2023-02-15T15:05:29;34.47;;;19.08;;
76069;SDS011;64768;51.738;5.852;2023-02-15T15:08:19;38.80;;;19.40;;
76069;SDS011;64768;51.738;5.852;2023-02-15T15:17:45;35.65;;;20.02;;
76069;SDS011;64768;51.738;5.852;2023-02-15T15:26:24;38.65;;;21.50;;
76069;SDS011;64768;51.738;5.852;2023-02-15T15:29:03;38.38;;;23.27;;
76069;SDS011;64768;51.738;5.852;2023-02-15T15:31:42;39.60;;;20.42;;
76069;SDS011;64768;51.738;5.852;2023-02-15T15:34:21;43.90;;;22.90;;
76069;SDS011;64768;51.738;5.852;2023-02-15T15:40:42;38.22;;;22.15;;
76069;SDS011;64768;51.738;5.852;2023-02-15T15:43:34;36.47;;;20.75;;
76069;SDS011;64768;51.738;5.852;2023-02-15T15:49:41;43.38;;;25.38;;
76069;SDS011;64768;51.738;5.852;2023-02-15T15:52:15;46.90;;;25.52;;
76069;SDS011;64768;51.738;5.852;2023-02-15T15:54:52;43.90;;;25.33;;
76069;SDS011;64768;51.738;5.852;2023-02-15T15:57:27;40.05;;;23.77;;
76069;SDS011;64768;51.738;5.852;2023-02-15T16:03:16;43.75;;;22.95;;
76069;SDS011;64768;51.738;5.852;2023-02-15T16:08:46;43.95;;;21.80;;
76069;SDS011;64768;51.738;5.852;2023-02-15T16:11:21;41.92;;;23.75;;
76069;SDS011;64768;51.738;5.852;2023-02-15T16:13:59;33.90;;;19.63;;
76069;SDS011;64768;51.738;5.852;2023-02-15T16:16:34;36.70;;;20.58;;
76069;SDS011;64768;51.738;5.852;2023-02-15T16:19:15;38.25;;;22.25;;
76069;SDS011;64768;51.738;5.852;2023-02-15T16:21:52;38.05;;;22.23;;
76069;SDS011;64768;51.738;5.852;2023-02-15T16:24:37;41.78;;;21.98;;
76069;SDS011;64768;51.738;5.852;2023-02-15T16:27:22;40.08;;;22.55;;
76069;SDS011;64768;51.738;5.852;2023-02-15T16:33:03;44.17;;;21.45;;
76069;SDS011;64768;51.738;5.852;2023-02-15T16:35:38;41.42;;;22.42;;
76069;SDS011;64768;51.738;5.852;2023-02-15T16:38:40;42.95;;;22.30;;
76069;SDS011;64768;51.738;5.852;2023-02-15T16:45:12;45.05;;;22.98;;
76069;SDS011;64768;51.738;5.852;2023-02-15T16:47:49;44.90;;;20.80;;
76069;SDS011;64768;51.738;5.852;2023-02-15T16:50:29;38.83;;;21.20;;
76069;SDS011;64768;51.738;5.852;2023-02-15T16:53:01;42.97;;;20.88;;
76069;SDS011;64768;51.738;5.852;2023-02-15T16:55:42;41.22;;;21.20;;
76069;SDS011;64768;51.738;5.852;2023-02-15T16:58:53;41.28;;;20.92;;
76069;SDS011;64768;51.738;5.852;2023-02-15T17:01:34;40.10;;;20.38;;
76069;SDS011;64768;51.738;5.852;2023-02-15T17:04:12;37.55;;;19.30;;
76069;SDS011;64768;51.738;5.852;2023-02-15T17:06:58;39.30;;;18.05;;
76069;SDS011;64768;51.738;5.852;2023-02-15T17:09:34;47.88;;;21.27;;
76069;SDS011;64768;51.738;5.852;2023-02-15T17:12:03;38.20;;;17.88;;
76069;SDS011;64768;51.738;5.852;2023-02-15T17:14:38;43.30;;;20.80;;
76069;SDS011;64768;51.738;5.852;2023-02-15T17:17:14;35.55;;;18.52;;
76069;SDS011;64768;51.738;5.852;2023-02-15T17:19:47;34.92;;;17.27;;
76069;SDS011;64768;51.738;5.852;2023-02-15T17:22:22;35.50;;;18.98;;
76069;SDS011;64768;51.738;5.852;2023-02-15T17:24:58;41.35;;;19.35;;
76069;SDS011;64768;51.738;5.852;2023-02-15T17:33:48;33.45;;;17.42;;
76069;SDS011;64768;51.738;5.852;2023-02-15T17:36:32;38.47;;;18.73;;
76069;SDS011;64768;51.738;5.852;2023-02-15T17:39:06;37.90;;;19.05;;
76069;SDS011;64768;51.738;5.852;2023-02-15T17:41:51;36.63;;;18.65;;
76069;SDS011;64768;51.738;5.852;2023-02-15T17:44:23;38.03;;;18.80;;
76069;SDS011;64768;51.738;5.852;2023-02-15T17:46:53;37.90;;;19.42;;
76069;SDS011;64768;51.738;5.852;2023-02-15T17:52:08;37.65;;;18.90;;
76069;SDS011;64768;51.738;5.852;2023-02-15T17:54:42;39.42;;;20.05;;
76069;SDS011;64768;51.738;5.852;2023-02-15T18:03:54;40.10;;;18.80;;
76069;SDS011;64768;51.738;5.852;2023-02-15T18:06:43;38.38;;;19.85;;
76069;SDS011;64768;51.738;5.852;2023-02-15T18:17:10;44.15;;;20.23;;
76069;SDS011;64768;51.738;5.852;2023-02-15T18:19:42;39.63;;;20.80;;
76069;SDS011;64768;51.738;5.852;2023-02-15T18:22:24;43.92;;;21.77;;
76069;SDS011;64768;51.738;5.852;2023-02-15T18:25:11;46.42;;;21.98;;
76069;SDS011;64768;51.738;5.852;2023-02-15T18:27:48;45.40;;;21.75;;
76069;SDS011;64768;51.738;5.852;2023-02-15T18:30:21;46.50;;;22.83;;
76069;SDS011;64768;51.738;5.852;2023-02-15T18:33:03;39.65;;;21.13;;
76069;SDS011;64768;51.738;5.852;2023-02-15T18:35:43;38.30;;;20.98;;
76069;SDS011;64768;51.738;5.852;2023-02-15T18:41:09;43.63;;;21.52;;
76069;SDS011;64768;51.738;5.852;2023-02-15T18:43:52;43.53;;;22.48;;
76069;SDS011;64768;51.738;5.852;2023-02-15T18:46:27;44.05;;;20.85;;
76069;SDS011;64768;51.738;5.852;2023-02-15T18:48:59;41.40;;;21.75;;
76069;SDS011;64768;51.738;5.852;2023-02-15T18:51:37;41.95;;;21.33;;
76069;SDS011;64768;51.738;5.852;2023-02-15T19:20:14;41.83;;;21.08;;
76069;SDS011;64768;51.738;5.852;2023-02-15T22:50:40;53.40;;;26.33;;
76069;SDS011;64768;51.738;5.852;2023-02-15T22:53:39;44.78;;;21.05;;
76069;SDS011;64768;51.738;5.852;2023-02-15T22:59:47;50.80;;;26.00;;
76069;SDS011;64768;51.738;5.852;2023-02-15T23:02:21;45.92;;;20.70;;
76069;SDS011;64768;51.738;5.852;2023-02-15T23:05:07;56.63;;;25.30;;
76069;SDS011;64768;51.738;5.852;2023-02-15T23:08:17;40.95;;;19.42;;
76069;SDS011;64768;51.738;5.852;2023-02-15T23:10:52;44.42;;;20.55;;
76069;SDS011;64768;51.738;5.852;2023-02-15T23:13:27;56.97;;;28.58;;
76069;SDS011;64768;51.738;5.852;2023-02-15T23:16:02;50.22;;;24.90;;
76069;SDS011;64768;51.738;5.852;2023-02-15T23:18:36;52.13;;;28.15;;
76069;SDS011;64768;51.738;5.852;2023-02-15T23:21:09;48.90;;;24.17;;
76069;SDS011;64768;51.738;5.852;2023-02-15T23:24:08;38.75;;;21.00;;
76069;SDS011;64768;51.738;5.852;2023-02-15T23:26:46;53.75;;;25.27;;
76069;SDS011;64768;51.738;5.852;2023-02-15T23:32:10;37.25;;;18.38;;
76069;SDS011;64768;51.738;5.852;2023-02-15T23:34:47;44.80;;;20.30;;
76069;SDS011;64768;51.738;5.852;2023-02-15T23:37:26;42.92;;;23.70;;
76069;SDS011;64768;51.738;5.852;2023-02-15T23:40:03;53.97;;;24.05;;
76069;SDS011;64768;51.738;5.852;2023-02-15T23:42:45;53.38;;;29.42;;
76069;SDS011;64768;51.738;5.852;2023-02-15T23:45:21;49.15;;;22.70;;
76069;SDS011;64768;51.738;5.852;2023-02-15T23:47:52;45.75;;;21.98;;
76069;SDS011;64768;51.738;5.852;2023-02-15T23:50:35;50.58;;;26.35;;
76069;SDS011;64768;51.738;5.852;2023-02-15T23:53:11;53.22;;;30.90;;
76069;SDS011;64768;51.738;5.852;2023-02-15T23:55:46;51.67;;;27.67;;
76069;SDS011;64768;51.738;5.852;2023-02-15T23:58:31;53.38;;;27.50;;
